• Join FlightAware (Why Join?)
  • Login
  • US Flag 
01:27AM EST


 

Airport Tracker/Info


-or-


 

Live Flight TrackerFlight Track Log ✈ AWE3794 ✈ 23-Apr-2013 ✈ KPHL - KCLE

Flight Track Log - Related Links

Times and Time Zones

All times are in EDT time to prevent confusion due to time zone crossing. See the AWE3794 flight status page for this flight to view local times or setup timezone preferences in your user account.

Time Position Orientation Groundspeed Altitude Reporting Facility
EDT Latitude Longitude Course Direction KTS MPH feet Rate Location/Type
07:30AM 39.8833 -75.2000 311° West 136 157 700  Level Philadelphia TRACON
07:31AM 39.8861 -75.1853 76° East 146 168 1,700 2,791 Climbing FAA TRACON SMA TRACON (SMA)
07:31AM 39.8889 -75.1669 79° East 165 190 2,700 2,634 Climbing FAA TRACON SMA TRACON (SMA)
07:31AM 39.8994 -75.1467 56° Northeast 200 230 3,500 2,341 Climbing FAA TRACON SMA TRACON (SMA)
07:32AM 39.9158 -75.1431 10° North 227 261 4,300 3,077 Climbing FAA TRACON SMA TRACON (SMA)
07:32AM 39.9353 -75.1594 327° Northwest 219 252 5,500 3,385 Climbing FAA TRACON SMA TRACON (SMA)
07:32AM 39.9469 -75.1778 310° West 215 247 6,500 2,250 Climbing FAA TRACON SMA TRACON (SMA)
07:33AM 40.0658 -75.4157 323° Northwest  Level FlightAware Approximate
07:33AM 39.9600 -75.1972 311° West 258 297 7,000  Level FAA TRACON SMA TRACON (SMA)
07:33AM 39.9789 -75.2231 314° West 253 291 7,600 1,950 Climbing FAA TRACON SMA TRACON (SMA)
07:33AM 39.9947 -75.2453 313° West 276 318 8,300 2,250 Climbing FAA TRACON SMA TRACON (SMA)
07:34AM 40.1336 -75.4835 323° Northwest  Level FlightAware Approximate
07:34AM 40.0117 -75.2681 314° West 284 327 9,100  Level FAA TRACON SMA TRACON (SMA)
07:34AM 40.0333 -75.2972 314° West 290 334 10,000 1,350 Climbing FAA TRACON SMA TRACON (SMA)
07:34AM 40.0522 -75.3233 313° West 333 383 10,000 1,350 Level FAA TRACON SMA TRACON (SMA)
07:35AM 40.2018 -75.5500 North  Level FlightAware Approximate
07:35AM 40.0756 -75.3561 313° West 346 398 10,900  Level FAA TRACON SMA TRACON (SMA)
07:35AM 40.0964 -75.3844 314° West 336 387 11,600 2,462 Climbing FAA TRACON SMA TRACON (SMA)
07:35AM 40.1161 -75.4119 313° West 338 389 12,500 1,950 Climbing FAA TRACON SMA TRACON (SMA)
07:36AM 40.2631 -75.6195 311° West  Level FlightAware Approximate
07:36AM 40.1358 -75.4392 313° West 338 389 12,900  Level FAA TRACON SMA TRACON (SMA)
07:36AM 40.1608 -75.4739 313° West 340 391 13,000 146 Climbing FAA TRACON SMA TRACON (SMA)
07:36AM 40.1811 -75.5025 313° West 345 397 13,000  Level FAA TRACON SMA TRACON (SMA)
07:37AM 40.2011 -75.5303 313° West 347 399 13,000 769 Level FAA TRACON SMA TRACON (SMA)
07:37AM 40.2272 -75.5669 313° West 352 405 13,500 1,610 Climbing FAA TRACON SMA TRACON (SMA)
07:37AM 40.2475 -75.5969 312° West 354 407 14,100 1,800 Climbing FAA TRACON SMA TRACON (SMA)
07:38AM 40.2672 -75.6269 311° West 354 407 14,700 1,692 Climbing FAA TRACON SMA TRACON (SMA)
07:38AM 40.2922 -75.6647 311° West 356 410 15,200 1,500 Climbing FAA TRACON SMA TRACON (SMA)
07:38AM 40.3122 -75.6947 311° West 361 415 15,700 1,756 Climbing FAA TRACON SMA TRACON (SMA)
07:39AM 40.3333 -75.7275 310° West 366 421 16,400 1,610 Climbing FAA TRACON SMA TRACON (SMA)
07:39AM 40.3592 -75.7667 311° West 369 425 16,800 900 Climbing FAA TRACON SMA TRACON (SMA)
07:39AM 40.3697 -75.7828 311° West 372 428 17,000 203 Climbing FAA TRACON SMA TRACON (SMA)
07:40AM 40.3697 -75.7828 37° Northeast 372 428 17,000 273 Level FAA TRACON SMA TRACON (SMA)
07:41AM 40.4469 -75.9228 306° West 370 426 17,300 1,103 Climbing New York Center
07:42AM 40.4683 -76.0525 282° West 364 419 18,600 1,300 Climbing New York Center
07:43AM 40.4853 -76.1850 280° West 369 425 19,900 1,388 Climbing New York Center
07:44AM 40.5061 -76.3203 281° West 374 430 21,400 1,339 Climbing New York Center
07:45AM 40.5289 -76.4561 282° West 379 436 22,600 1,361 Climbing New York Center
07:46AM 40.5514 -76.5944 282° West 379 436 24,100 1,450 Climbing New York Center
07:47AM 40.5842 -76.7283 288° West 379 436 25,500 1,300 Climbing New York Center
07:48AM 40.6192 -76.8628 289° West 386 444 26,700 1,091 Climbing New York Center
07:49AM 40.6561 -76.9947 290° West 391 450 27,700 650 Climbing New York Center
07:50AM 40.6925 -77.1294 290° West 391 450 28,000 151 Climbing New York Center
07:51AM 40.7269 -77.2642 289° West 391 450 28,000  Level New York Center
07:52AM 40.7603 -77.3797 291° West 391 450 28,000  Level New York Center
07:53AM 40.7942 -77.5144 288° West 391 450 28,000  Level New York Center
07:55AM 40.8650 -77.8017 288° West 380 437 28,000  Level Cleveland Center
07:56AM 40.8994 -77.9350 289° West 375 432 28,000  Level Cleveland Center
07:57AM 40.9275 -78.0683 286° West 375 432 28,000  Level Cleveland Center
07:58AM 40.9492 -78.2050 282° West 375 432 28,000  Level Cleveland Center
07:59AM 40.9769 -78.3417 285° West 375 432 28,000  Level Cleveland Center
08:00AM 40.9964 -78.4786 281° West 375 432 28,000  Level Cleveland Center
08:01AM 41.0197 -78.6153 283° West 375 432 28,000  Level Cleveland Center
08:02AM 41.0406 -78.7525 281° West 375 432 28,000  Level Cleveland Center
08:03AM 41.0636 -78.8867 283° West 375 432 28,000  Level Cleveland Center
08:04AM 41.0864 -79.0239 282° West 375 432 28,000  Level Cleveland Center
08:05AM 41.1047 -79.1558 280° West 375 432 28,000  Level Cleveland Center
08:06AM 41.1275 -79.3042 282° West 375 432 28,000  Level Cleveland Center
08:07AM 41.1453 -79.4222 281° West 375 432 28,000 -50 Level Cleveland Center
08:08AM 41.1675 -79.5569 282° West 375 432 27,900 -850 Descending Cleveland Center
08:09AM 41.1894 -79.7086 281° West 375 432 26,300 -1,600 Descending Cleveland Center
08:10AM 41.2092 -79.8381 281° West 370 426 24,700 -1,150 Descending Cleveland Center
08:11AM 41.2289 -79.9703 281° West 370 426 24,000 -350 Descending Cleveland Center
08:12AM 41.2481 -80.0917 282° West 370 426 24,000 -550 Level Cleveland Center
08:13AM 41.2675 -80.2322 280° West 377 434 22,900 -1,650 Descending Cleveland Center
08:14AM 41.2886 -80.3814 281° West 382 440 20,700 -2,050 Descending Cleveland Center
08:15AM 41.3075 -80.5058 281° West 362 417 18,800 -1,600 Descending Cleveland Center
08:16AM 41.3242 -80.6136 282° West 348 400 17,500 -1,592 Descending Cleveland Center
08:16AM 41.3386 -80.7019 282° West 336 387 16,200 -1,700 Descending Cleveland Center
08:17AM 41.3533 -80.7325 303° West 332 382 15,800 -1,463 Descending Cleveland Center
08:18AM 41.3947 -80.8406 297° West 332 382 14,200 -1,760 Descending Cleveland Center
08:18AM 41.4072 -80.8767 295° West 335 386 13,600 -1,760 Descending Cleveland Center
08:19AM 41.4319 -80.9958 286° West 323 372 12,000 -1,587 Descending Cleveland Center
08:20AM 41.4481 -81.1094 281° West 314 361 10,400 -1,143 Descending Cleveland Center
08:21AM 41.4581 -81.1844 280° West 311 358 10,000 -261 Descending Cleveland Center
08:22AM 41.4761 -81.3175 280° West 285 328 9,900 -700 Descending Cleveland Center
08:23AM 41.4861 -81.3897 280° West 294 338 8,600 -1,706 Descending Cleveland Center
08:24AM 41.4978 -81.4925 279° West 288 331 6,800 -1,650 Descending Cleveland Center
08:25AM 41.5094 -81.5842 280° West 267 307 5,300 -1,500 Descending Cleveland Center